Commodore Clipper — C6QQ3 — position and weather

sailwx.info

Track history (hours):
 
Tides and Currents Weather Stations Pressure Air Temp Water Temp Dewpoint Dewpoint Depression Visibility Wind Speed Wind Dir Waves Ship Positions

Commodore Clipper

Operator: Condor Marine Services

Last reported at 2017-Nov-24 09:30 UTC. Time now 2017-Nov-24 09:33 UTC.
Position N 50°48' W 001°07'.

Length 130 m; draft 5.2 m.

Type: Ship. MMSI: 308094000.

Date/timePositionNaut miles runAvg speedWind from/ knotsBaromVisibWave heightAir tempDewpointWater temp
2017-Nov-24 09:30N 50°48' W 001°07'1 1.8
2017-Nov-24 09:00N 50°49' W 001°06'0 0.0
2017-Nov-24 08:31N 50°49' W 001°06'0 0.0
2017-Nov-24 08:01N 50°49' W 001°06'0 0.0
2017-Nov-24 07:30N 50°49' W 001°06'0 0.0
2017-Nov-24 07:00N 50°49' W 001°06'2 3.7
2017-Nov-24 06:30N 50°47' W 001°06'1 2.8
2017-Nov-24 06:00N 50°46' W 001°07'0 0.1
2017-Nov-24 05:30N 50°46' W 001°07'0 0.0
2017-Nov-24 05:00N 50°46' W 001°07'0 0.1
2017-Nov-24 04:31N 50°46' W 001°07'0 0.0
2017-Nov-24 04:00N 50°46' W 001°07'0 0.0
2017-Nov-24 03:30N 50°46' W 001°07'0 0.0
2017-Nov-24 03:00N 50°46' W 001°07'0 0.0
2017-Nov-24 02:30N 50°46' W 001°07'0 0.0
2017-Nov-24 02:00N 50°46' W 001°07'0 0.0
2017-Nov-24 01:31N 50°46' W 001°07'0 0.0
2017-Nov-24 01:01N 50°46' W 001°07'0 0.0
2017-Nov-24 00:31N 50°46' W 001°07'0 0.0
2017-Nov-24 00:01N 50°46' W 001°07'0 0.0
2017-Nov-23 23:31N 50°46' W 001°07'0 0.0
2017-Nov-23 23:00N 50°46' W 001°07'0 0.0
2017-Nov-23 22:30N 50°46' W 001°07'0 0.0
2017-Nov-23 22:00N 50°46' W 001°07'0 0.0
2017-Nov-23 21:30N 50°46' W 001°07'0 0.0
2017-Nov-23 21:01N 50°46' W 001°07'0 0.0
2017-Nov-23 20:30N 50°46' W 001°07'2 3.3
2017-Nov-23 20:00N 50°47' W 001°07'2 3.1
2017-Nov-23 19:30N 50°49' W 001°06'0 0.0
2017-Nov-23 19:00N 50°49' W 001°06'0 0.0
2017-Nov-23 18:31N 50°49' W 001°06'0 0.8
2017-Nov-23 18:00N 50°49' W 001°06'510.2
2017-Nov-23 17:31N 50°44' W 001°04'713.8
2017-Nov-23 17:00N 50°37' W 001°07'714.6
2017-Nov-23 16:30N 50°31' W 001°13'915.0
2017-Nov-23 15:52N 50°23' W 001°21'615.3
2017-Nov-23 15:31N 50°18' W 001°26'815.5
2017-Nov-23 15:01N 50°12' W 001°33'815.8
2017-Nov-23 14:31N 50°06' W 001°40'816.1
2017-Nov-23 14:00N 49°59' W 001°48'816.7
2017-Nov-23 13:31N 49°52' W 001°55'917.2
2017-Nov-23 13:01N 49°45' W 002°02'917.2
2017-Nov-23 12:31N 49°37' W 002°07'917.7
2017-Nov-23 12:01N 49°29' W 002°13'918.3
2017-Nov-23 11:31N 49°21' W 002°18'816.7
2017-Nov-23 11:00N 49°12' W 002°19'815.5
2017-Nov-23 10:30N 49°10' W 002°08'1 0.4
2017-Nov-23 07:39N 49°11' W 002°07'1 3.6
2017-Nov-23 07:30N 49°10' W 002°07'1315.0
2017-Nov-23 06:36N 49°18' W 002°24'217.7
2017-Nov-23 06:29N 49°20' W 002°26'817.0
2017-Nov-23 06:01N 49°27' W 002°31'1 1.6
2017-Nov-23 05:30N 49°27' W 002°32'0 0.0
2017-Nov-23 05:00N 49°27' W 002°32'0 0.0
2017-Nov-23 04:30N 49°27' W 002°32'0 0.0
2017-Nov-23 04:00N 49°27' W 002°32'0 0.0
2017-Nov-23 03:30N 49°27' W 002°32'0 0.0
2017-Nov-23 03:00N 49°27' W 002°32'0 0.0
2017-Nov-23 02:30N 49°27' W 002°32'0 0.0
2017-Nov-23 02:00N 49°27' W 002°32'0 0.0
2017-Nov-23 01:30N 49°27' W 002°32'0 0.0
2017-Nov-23 01:00N 49°27' W 002°32'0 0.0
2017-Nov-23 00:30N 49°27' W 002°32'0 0.0
2017-Nov-23 00:00N 49°27' W 002°32'0 0.0
2017-Nov-22 23:29N 49°27' W 002°32'0 0.0
2017-Nov-22 23:00N 49°27' W 002°32'0 0.0
2017-Nov-22 22:30N 49°27' W 002°32'0 0.0
2017-Nov-22 22:00N 49°27' W 002°32'0 0.0
2017-Nov-22 21:30N 49°27' W 002°32'0 0.0
2017-Nov-22 21:00N 49°27' W 002°32'0 0.0
2017-Nov-22 20:30N 49°27' W 002°32'0 0.0
2017-Nov-22 20:00N 49°27' W 002°32'0 0.0
2017-Nov-22 19:30N 49°27' W 002°32'  
2017-Nov-20 00:30N 50°49' W 001°06'0 0.0
2017-Nov-20 00:00N 50°49' W 001°06'0 0.0
2017-Nov-19 23:30N 50°49' W 001°06'0 0.0
2017-Nov-19 23:00N 50°49' W 001°06'0 0.0
2017-Nov-19 22:30N 50°49' W 001°06'0 0.0
2017-Nov-19 22:00N 50°49' W 001°06'0 0.0
2017-Nov-19 21:30N 50°49' W 001°06'0 0.0
2017-Nov-19 21:00N 50°49' W 001°06'0 0.0
2017-Nov-19 20:30N 50°49' W 001°06'0 0.0
2017-Nov-19 20:01N 50°49' W 001°06'0 0.0
2017-Nov-19 19:30N 50°49' W 001°06'0 0.0
2017-Nov-19 19:01N 50°49' W 001°06'0 0.0
2017-Nov-19 18:30N 50°49' W 001°06'0 0.0
2017-Nov-19 18:00N 50°49' W 001°06'0 0.0
2017-Nov-19 17:30N 50°49' W 001°06'0 0.0
2017-Nov-19 17:00N 50°49' W 001°06'0 0.0
2017-Nov-19 16:30N 50°49' W 001°06'0 0.0
2017-Nov-19 16:00N 50°49' W 001°06'0 0.0
2017-Nov-19 15:30N 50°49' W 001°06'0 0.0
2017-Nov-19 15:01N 50°49' W 001°06'0 0.0
2017-Nov-19 14:30N 50°49' W 001°06'0 0.0
2017-Nov-19 14:01N 50°49' W 001°06'0 0.0
2017-Nov-19 13:30N 50°49' W 001°06'0 0.0
2017-Nov-19 13:00N 50°49' W 001°06'0 0.0
2017-Nov-19 12:30N 50°49' W 001°06'0 0.0
2017-Nov-19 12:01N 50°49' W 001°06'0 0.0
2017-Nov-19 11:30N 50°49' W 001°06'0 0.0
2017-Nov-19 11:00N 50°49' W 001°06'0 0.0
2017-Nov-19 10:30N 50°49' W 001°06'0 0.0
2017-Nov-19 10:01N 50°49' W 001°06'0 0.0
2017-Nov-19 09:30N 50°49' W 001°06'0 0.0
2017-Nov-19 09:00N 50°49' W 001°06'0 0.0
2017-Nov-19 08:30N 50°49' W 001°06'0 0.0
2017-Nov-19 08:00N 50°49' W 001°06'0 0.0
2017-Nov-19 07:30N 50°49' W 001°06'0 0.0
2017-Nov-19 07:00N 50°49' W 001°06'0 0.0
2017-Nov-19 06:31N 50°49' W 001°06'1 2.8
2017-Nov-19 06:00N 50°47' W 001°07'713.3
2017-Nov-19 05:31N 50°42' W 001°01'714.3
2017-Nov-19 05:01N 50°36' W 001°06'812.8
2017-Nov-19 04:24N 50°30' W 001°14'810.7
2017-Nov-19 03:37N 50°23' W 001°22'110.2
2017-Nov-19 03:31N 50°22' W 001°23'713.9
2017-Nov-19 03:01N 50°16' W 001°28'713.3
2017-Nov-19 02:30N 50°10' W 001°33'612.8
2017-Nov-19 02:00N 50°06' W 001°40'713.2
2017-Nov-19 01:31N 50°01' W 001°47'714.3
2017-Nov-19 01:00N 49°54' W 001°51'714.4
2017-Nov-19 00:30N 49°48' W 001°57'612.3
2017-Nov-19 00:00N 49°43' W 002°03'813.6
2017-Nov-18 23:26N 49°36' W 002°08'716.0
2017-Nov-18 23:01N 49°30' W 002°11'816.9
2017-Nov-18 22:30N 49°22' W 002°16'13 3.4
2017-Nov-18 18:48N 49°10' W 002°10'1214.8
2017-Nov-18 17:59N 49°18' W 002°23'817.1
2017-Nov-18 17:30N 49°26' W 002°29'2 4.7
2017-Nov-18 16:59N 49°27' W 002°32'0 0.0
2017-Nov-18 16:30N 49°27' W 002°32'15 8.4
2017-Nov-18 14:44N 49°32' W 002°10'815.8
2017-Nov-18 14:15N 49°39' W 002°06'821.0
2017-Nov-18 13:52N 49°46' W 002°01'719.1
2017-Nov-18 13:30N 49°53' W 001°57'1019.1
2017-Nov-18 13:00N 50°00' W 001°49'918.7
2017-Nov-18 12:30N 50°08' W 001°39'1117.9
2017-Nov-18 11:54N 50°16' W 001°28'1317.3
2017-Nov-18 11:09N 50°27' W 001°18'217.2
2017-Nov-18 11:00N 50°29' W 001°16'917.2
2017-Nov-18 10:31N 50°36' W 001°08'815.6
2017-Nov-18 10:00N 50°43' W 001°03'611.8
2017-Nov-18 09:31N 50°49' W 001°07'1 1.4
2017-Nov-18 09:00N 50°49' W 001°06'0 0.0
2017-Nov-18 08:30N 50°49' W 001°06'0 0.0
2017-Nov-18 08:00N 50°49' W 001°06'0 0.0
2017-Nov-18 07:31N 50°49' W 001°06'0 0.0
2017-Nov-18 07:00N 50°49' W 001°06'0 0.0
2017-Nov-18 06:30N 50°49' W 001°06'1 2.6
2017-Nov-18 06:00N 50°48' W 001°07'713.1
2017-Nov-18 05:30N 50°42' W 001°01'815.1
2017-Nov-18 05:00N 50°36' W 001°06'1315.4
2017-Nov-18 04:12N 50°25' W 001°17'415.6
2017-Nov-18 03:56N 50°22' W 001°21'716.1
2017-Nov-18 03:31N 50°16' W 001°27'815.9
2017-Nov-18 03:00N 50°09' W 001°34'714.8
2017-Nov-18 02:30N 50°03' W 001°41'714.2
2017-Nov-18 02:00N 49°58' W 001°48'714.3
2017-Nov-18 01:30N 49°52' W 001°54'714.0
2017-Nov-18 01:00N 49°46' W 001°60'3912.9
2017-Nov-17 22:01N 49°08' W 002°09'12 3.2
2017-Nov-17 18:21N 49°16' W 002°23'616.6
2017-Nov-17 18:01N 49°21' W 002°26'714.3
2017-Nov-17 17:30N 49°27' W 002°32'0 0.0
2017-Nov-17 17:00N 49°27' W 002°32'0 0.0
2017-Nov-17 16:30N 49°27' W 002°32'4 3.8
2017-Nov-17 15:21N 49°27' W 002°25'615.4
2017-Nov-17 14:59N 49°30' W 002°18'511.2
2017-Nov-17 14:30N 49°33' W 002°11'611.1
2017-Nov-17 13:59N 49°38' W 002°07'919.2
2017-Nov-17 13:31N 49°47' W 002°03'1019.5
2017-Nov-17 13:01N 49°56' W 001°56'1020.2
2017-Nov-17 12:30N 50°03' W 001°46'1019.8
2017-Nov-17 12:00N 50°11' W 001°36'1718.9
2017-Nov-17 11:07N 50°25' W 001°20'318.5
2017-Nov-17 10:57N 50°27' W 001°18'818.8
2017-Nov-17 10:30N 50°34' W 001°11'918.1
2017-Nov-17 10:01N 50°42' W 001°03'713.9
2017-Nov-17 09:30N 50°48' W 001°07'1 2.1
2017-Nov-17 09:00N 50°49' W 001°06'0 0.0
2017-Nov-17 08:30N 50°49' W 001°06'0 0.0
2017-Nov-17 08:00N 50°49' W 001°06'0 0.0
2017-Nov-17 07:30N 50°49' W 001°06'0 0.0
2017-Nov-17 07:00N 50°49' W 001°06'0 0.9
2017-Nov-17 06:30N 50°49' W 001°06'2 3.3
2017-Nov-17 06:01N 50°47' W 001°06'611.8
2017-Nov-17 05:31N 50°42' W 001°01'815.9
2017-Nov-17 05:01N 50°35' W 001°07'1816.1
2017-Nov-17 03:52N 50°21' W 001°26'616.2
2017-Nov-17 03:30N 50°17' W 001°32'714.9
2017-Nov-17 03:00N 50°11' W 001°38'714.5
2017-Nov-17 02:30N 50°04' W 001°41'714.4
2017-Nov-17 02:00N 49°58' W 001°47'714.3
2017-Nov-17 01:30N 49°52' W 001°52'713.2
2017-Nov-17 01:01N 49°46' W 001°59'611.1
2017-Nov-17 00:30N 49°42' W 002°03'612.9
2017-Nov-17 00:01N 49°36' W 002°08'714.2
2017-Nov-16 23:30N 49°31' W 002°16'815.1
2017-Nov-16 23:00N 49°27' W 002°25'4 8.6
2017-Nov-16 22:30N 49°27' W 002°32'0 0.0
2017-Nov-16 22:00N 49°27' W 002°32'0 0.0
2017-Nov-16 21:30N 49°27' W 002°32'0 0.0
2017-Nov-16 21:00N 49°27' W 002°32'4 9.0
2017-Nov-16 20:31N 49°23' W 002°28'1813.4
2017-Nov-16 19:09N 49°10' W 002°10'2 0.6
2017-Nov-16 16:42N 49°10' W 002°08'416.4
2017-Nov-16 16:28N 49°10' W 002°14'714.8
2017-Nov-16 16:00N 49°15' W 002°21'611.4
2017-Nov-16 15:30N 49°20' W 002°18'510.6
2017-Nov-16 15:00N 49°25' W 002°15'611.3
2017-Nov-16 14:30N 49°30' W 002°11'1517.5
2017-Nov-16 13:39N 49°44' W 002°03'319.1
2017-Nov-16 13:31N 49°47' W 002°02'918.8
2017-Nov-16 13:00N 49°55' W 001°54'1019.3
2017-Nov-16 12:30N 50°02' W 001°45'919.0
2017-Nov-16 12:01N 50°10' W 001°36'2018.3
2017-Nov-16 10:55N 50°26' W 001°18'818.3
2017-Nov-16 10:30N 50°33' W 001°11'918.5
2017-Nov-16 10:00N 50°40' W 001°04'714.7
2017-Nov-16 09:30N 50°47' W 001°07'1 2.9
2017-Nov-16 09:00N 50°49' W 001°06'0 0.0
2017-Nov-16 08:30N 50°49' W 001°06'0 0.0
2017-Nov-16 08:00N 50°49' W 001°06'0 0.0
2017-Nov-16 07:31N 50°49' W 001°06'0 0.0
2017-Nov-16 07:01N 50°49' W 001°06'0 0.0
2017-Nov-16 06:31N 50°49' W 001°06'1 2.5
2017-Nov-16 06:01N 50°48' W 001°07'713.2
2017-Nov-16 05:31N 50°42' W 001°03'816.5
2017-Nov-16 05:00N 50°35' W 001°10'1913.8
2017-Nov-16 03:38N 50°20' W 001°29'213.0
2017-Nov-16 03:28N 50°19' W 001°31'816.4
2017-Nov-16 03:01N 50°12' W 001°37'816.6
2017-Nov-16 02:30N 50°05' W 001°42'714.9
2017-Nov-16 02:00N 49°58' W 001°49'713.6
2017-Nov-16 01:30N 49°52' W 001°53'714.7
2017-Nov-16 01:00N 49°46' W 001°59'713.3
2017-Nov-16 00:30N 49°41' W 002°05'714.3
2017-Nov-16 00:01N 49°34' W 002°10'815.6
2017-Nov-15 23:30N 49°29' W 002°20'714.3
2017-Nov-15 23:01N 49°25' W 002°29'3 5.7
2017-Nov-15 22:30N 49°27' W 002°32'0 0.0
2017-Nov-15 22:00N 49°27' W 002°32'0 0.0
2017-Nov-15 21:30N 49°27' W 002°32'0 0.0
2017-Nov-15 21:00N 49°27' W 002°32'4 8.9
2017-Nov-15 20:30N 49°24' W 002°28'17 4.1
2017-Nov-15 16:28N 49°10' W 002°14'715.0
2017-Nov-15 16:01N 49°15' W 002°21'815.7
2017-Nov-15 15:30N 49°22' W 002°17'713.1
2017-Nov-15 14:58N 49°29' W 002°12'611.9
2017-Nov-15 14:30N 49°34' W 002°09'612.5
2017-Nov-15 14:00N 49°39' W 002°05'918.2
2017-Nov-15 13:30N 49°48' W 002°00'918.6
2017-Nov-15 13:00N 49°56' W 001°54'1019.1
2017-Nov-15 12:31N 50°03' W 001°44'918.8
2017-Nov-15 12:01N 50°11' W 001°35'2318.7
2017-Nov-15 10:47N 50°30' W 001°15'519.3
2017-Nov-15 10:31N 50°34' W 001°10'918.1
2017-Nov-15 10:01N 50°42' W 001°03'612.8
2017-Nov-15 09:30N 50°48' W 001°07'1 2.1
2017-Nov-15 09:00N 50°49' W 001°06'0 0.0
2017-Nov-15 08:30N 50°49' W 001°06'0 0.0
2017-Nov-15 08:01N 50°49' W 001°06'0 0.0
2017-Nov-15 07:31N 50°49' W 001°06'0 0.0
2017-Nov-15 07:00N 50°49' W 001°06'2 4.5
2017-Nov-15 06:31N 50°47' W 001°06'714.6
2017-Nov-15 06:00N 50°39' W 001°05'2013.5
2017-Nov-15 04:31N 50°22' W 001°22'012.7
2017-Nov-15 04:30N 50°22' W 001°22'713.6
2017-Nov-15 04:01N 50°17' W 001°28'815.1
2017-Nov-15 03:30N 50°10' W 001°35'917.7
2017-Nov-15 03:00N 50°03' W 001°43'917.5
2017-Nov-15 02:30N 49°56' W 001°50'917.3
2017-Nov-15 02:00N 49°48' W 001°57'816.8
2017-Nov-15 01:30N 49°41' W 002°02'816.2
2017-Nov-15 01:00N 49°34' W 002°10'816.8
2017-Nov-15 00:31N 49°29' W 002°20'713.6
2017-Nov-15 00:00N 49°26' W 002°30'2 3.3
2017-Nov-14 23:30N 49°27' W 002°32'0 0.0
2017-Nov-14 23:01N 49°27' W 002°32'0 0.1
2017-Nov-14 22:23N 49°27' W 002°32'4 9.3
2017-Nov-14 22:01N 49°24' W 002°28'916.8
2017-Nov-14 21:30N 49°17' W 002°23'1015.4
2017-Nov-14 20:52N 49°10' W 002°12'3 1.4
2017-Nov-14 18:54N 49°10' W 002°08'912.2
2017-Nov-14 18:10N 49°16' W 002°19'316.0
2017-Nov-14 17:59N 49°19' W 002°19'715.2
2017-Nov-14 17:30N 49°25' W 002°15'815.1
2017-Nov-14 17:00N 49°32' W 002°10'814.4
2017-Nov-14 16:28N 49°39' W 002°06'612.2
2017-Nov-14 16:00N 49°45' W 002°02'613.0
2017-Nov-14 15:30N 49°50' W 001°56'714.9
2017-Nov-14 15:01N 49°56' W 001°49'815.8
2017-Nov-14 14:30N 50°02' W 001°41'816.7
2017-Nov-14 14:00N 50°10' W 001°36'917.0
2017-Nov-14 13:30N 50°17' W 001°29'1617.5
2017-Nov-14 12:35N 50°30' W 001°15'118.0
2017-Nov-14 12:30N 50°31' W 001°14'918.2
2017-Nov-14 12:00N 50°39' W 001°05'815.6
2017-Nov-14 11:31N 50°46' W 001°06'2 4.5
2017-Nov-14 11:01N 50°49' W 001°06'0 0.0
2017-Nov-14 10:31N 50°49' W 001°06'0 0.0
2017-Nov-14 10:01N 50°49' W 001°06'0 0.0
2017-Nov-14 09:31N 50°49' W 001°06'  
Track history (hours):
 
Tides and Currents Weather Stations Pressure Air Temp Water Temp Dewpoint Dewpoint Depression Visibility Wind Speed Wind Dir Waves Ship Positions

Commodore Clipper

Operator: Condor Marine Services

Last reported at 2017-Nov-24 09:30 UTC. Time now 2017-Nov-24 09:33 UTC.
Position N 50°48' W 001°07'.

Length 130 m; draft 5.2 m.

Type: Ship. MMSI: 308094000.

Date/timePositionNaut miles runAvg speedWind from/ knotsBaromVisibWave heightAir tempDewpointWater temp
2017-Nov-24 09:30N 50°48' W 001°07'1 1.8
2017-Nov-24 09:00N 50°49' W 001°06'0 0.0
2017-Nov-24 08:31N 50°49' W 001°06'0 0.0
2017-Nov-24 08:01N 50°49' W 001°06'0 0.0
2017-Nov-24 07:30N 50°49' W 001°06'0 0.0
2017-Nov-24 07:00N 50°49' W 001°06'2 3.7
2017-Nov-24 06:30N 50°47' W 001°06'1 2.8
2017-Nov-24 06:00N 50°46' W 001°07'0 0.1
2017-Nov-24 05:30N 50°46' W 001°07'0 0.0
2017-Nov-24 05:00N 50°46' W 001°07'0 0.1
2017-Nov-24 04:31N 50°46' W 001°07'0 0.0
2017-Nov-24 04:00N 50°46' W 001°07'0 0.0
2017-Nov-24 03:30N 50°46' W 001°07'0 0.0
2017-Nov-24 03:00N 50°46' W 001°07'0 0.0
2017-Nov-24 02:30N 50°46' W 001°07'0 0.0
2017-Nov-24 02:00N 50°46' W 001°07'0 0.0
2017-Nov-24 01:31N 50°46' W 001°07'0 0.0
2017-Nov-24 01:01N 50°46' W 001°07'0 0.0
2017-Nov-24 00:31N 50°46' W 001°07'0 0.0
2017-Nov-24 00:01N 50°46' W 001°07'0 0.0
2017-Nov-23 23:31N 50°46' W 001°07'0 0.0
2017-Nov-23 23:00N 50°46' W 001°07'0 0.0
2017-Nov-23 22:30N 50°46' W 001°07'0 0.0
2017-Nov-23 22:00N 50°46' W 001°07'0 0.0
2017-Nov-23 21:30N 50°46' W 001°07'0 0.0
2017-Nov-23 21:01N 50°46' W 001°07'0 0.0
2017-Nov-23 20:30N 50°46' W 001°07'2 3.3
2017-Nov-23 20:00N 50°47' W 001°07'2 3.1
2017-Nov-23 19:30N 50°49' W 001°06'0 0.0
2017-Nov-23 19:00N 50°49' W 001°06'0 0.0
2017-Nov-23 18:31N 50°49' W 001°06'0 0.8
2017-Nov-23 18:00N 50°49' W 001°06'510.2
2017-Nov-23 17:31N 50°44' W 001°04'713.8
2017-Nov-23 17:00N 50°37' W 001°07'714.6
2017-Nov-23 16:30N 50°31' W 001°13'915.0
2017-Nov-23 15:52N 50°23' W 001°21'615.3
2017-Nov-23 15:31N 50°18' W 001°26'815.5
2017-Nov-23 15:01N 50°12' W 001°33'815.8
2017-Nov-23 14:31N 50°06' W 001°40'816.1
2017-Nov-23 14:00N 49°59' W 001°48'816.7
2017-Nov-23 13:31N 49°52' W 001°55'917.2
2017-Nov-23 13:01N 49°45' W 002°02'917.2
2017-Nov-23 12:31N 49°37' W 002°07'917.7
2017-Nov-23 12:01N 49°29' W 002°13'918.3
2017-Nov-23 11:31N 49°21' W 002°18'816.7
2017-Nov-23 11:00N 49°12' W 002°19'815.5
2017-Nov-23 10:30N 49°10' W 002°08'1 0.4
2017-Nov-23 07:39N 49°11' W 002°07'1 3.6
2017-Nov-23 07:30N 49°10' W 002°07'1315.0
2017-Nov-23 06:36N 49°18' W 002°24'217.7
2017-Nov-23 06:29N 49°20' W 002°26'817.0
2017-Nov-23 06:01N 49°27' W 002°31'1 1.6
2017-Nov-23 05:30N 49°27' W 002°32'0 0.0
2017-Nov-23 05:00N 49°27' W 002°32'0 0.0
2017-Nov-23 04:30N 49°27' W 002°32'0 0.0
2017-Nov-23 04:00N 49°27' W 002°32'0 0.0
2017-Nov-23 03:30N 49°27' W 002°32'0 0.0
2017-Nov-23 03:00N 49°27' W 002°32'0 0.0
2017-Nov-23 02:30N 49°27' W 002°32'0 0.0
2017-Nov-23 02:00N 49°27' W 002°32'0 0.0
2017-Nov-23 01:30N 49°27' W 002°32'0 0.0
2017-Nov-23 01:00N 49°27' W 002°32'0 0.0
2017-Nov-23 00:30N 49°27' W 002°32'0 0.0
2017-Nov-23 00:00N 49°27' W 002°32'0 0.0
2017-Nov-22 23:29N 49°27' W 002°32'0 0.0
2017-Nov-22 23:00N 49°27' W 002°32'0 0.0
2017-Nov-22 22:30N 49°27' W 002°32'0 0.0
2017-Nov-22 22:00N 49°27' W 002°32'0 0.0
2017-Nov-22 21:30N 49°27' W 002°32'0 0.0
2017-Nov-22 21:00N 49°27' W 002°32'0 0.0
2017-Nov-22 20:30N 49°27' W 002°32'0 0.0
2017-Nov-22 20:00N 49°27' W 002°32'0 0.0
2017-Nov-22 19:30N 49°27' W 002°32'  
2017-Nov-20 00:30N 50°49' W 001°06'0 0.0
2017-Nov-20 00:00N 50°49' W 001°06'0 0.0
2017-Nov-19 23:30N 50°49' W 001°06'0 0.0
2017-Nov-19 23:00N 50°49' W 001°06'0 0.0
2017-Nov-19 22:30N 50°49' W 001°06'0 0.0
2017-Nov-19 22:00N 50°49' W 001°06'0 0.0
2017-Nov-19 21:30N 50°49' W 001°06'0 0.0
2017-Nov-19 21:00N 50°49' W 001°06'0 0.0
2017-Nov-19 20:30N 50°49' W 001°06'0 0.0
2017-Nov-19 20:01N 50°49' W 001°06'0 0.0
2017-Nov-19 19:30N 50°49' W 001°06'0 0.0
2017-Nov-19 19:01N 50°49' W 001°06'0 0.0
2017-Nov-19 18:30N 50°49' W 001°06'0 0.0
2017-Nov-19 18:00N 50°49' W 001°06'0 0.0
2017-Nov-19 17:30N 50°49' W 001°06'0 0.0
2017-Nov-19 17:00N 50°49' W 001°06'0 0.0
2017-Nov-19 16:30N 50°49' W 001°06'0 0.0
2017-Nov-19 16:00N 50°49' W 001°06'0 0.0
2017-Nov-19 15:30N 50°49' W 001°06'0 0.0
2017-Nov-19 15:01N 50°49' W 001°06'0 0.0
2017-Nov-19 14:30N 50°49' W 001°06'0 0.0
2017-Nov-19 14:01N 50°49' W 001°06'0 0.0
2017-Nov-19 13:30N 50°49' W 001°06'0 0.0
2017-Nov-19 13:00N 50°49' W 001°06'0 0.0
2017-Nov-19 12:30N 50°49' W 001°06'0 0.0
2017-Nov-19 12:01N 50°49' W 001°06'0 0.0
2017-Nov-19 11:30N 50°49' W 001°06'0 0.0
2017-Nov-19 11:00N 50°49' W 001°06'0 0.0
2017-Nov-19 10:30N 50°49' W 001°06'0 0.0
2017-Nov-19 10:01N 50°49' W 001°06'0 0.0
2017-Nov-19 09:30N 50°49' W 001°06'0 0.0
2017-Nov-19 09:00N 50°49' W 001°06'0 0.0
2017-Nov-19 08:30N 50°49' W 001°06'0 0.0
2017-Nov-19 08:00N 50°49' W 001°06'0 0.0
2017-Nov-19 07:30N 50°49' W 001°06'0 0.0
2017-Nov-19 07:00N 50°49' W 001°06'0 0.0
2017-Nov-19 06:31N 50°49' W 001°06'1 2.8
2017-Nov-19 06:00N 50°47' W 001°07'713.3
2017-Nov-19 05:31N 50°42' W 001°01'714.3
2017-Nov-19 05:01N 50°36' W 001°06'812.8
2017-Nov-19 04:24N 50°30' W 001°14'810.7
2017-Nov-19 03:37N 50°23' W 001°22'110.2
2017-Nov-19 03:31N 50°22' W 001°23'713.9
2017-Nov-19 03:01N 50°16' W 001°28'713.3
2017-Nov-19 02:30N 50°10' W 001°33'612.8
2017-Nov-19 02:00N 50°06' W 001°40'713.2
2017-Nov-19 01:31N 50°01' W 001°47'714.3
2017-Nov-19 01:00N 49°54' W 001°51'714.4
2017-Nov-19 00:30N 49°48' W 001°57'612.3
2017-Nov-19 00:00N 49°43' W 002°03'813.6
2017-Nov-18 23:26N 49°36' W 002°08'716.0
2017-Nov-18 23:01N 49°30' W 002°11'816.9
2017-Nov-18 22:30N 49°22' W 002°16'13 3.4
2017-Nov-18 18:48N 49°10' W 002°10'1214.8
2017-Nov-18 17:59N 49°18' W 002°23'817.1
2017-Nov-18 17:30N 49°26' W 002°29'2 4.7
2017-Nov-18 16:59N 49°27' W 002°32'0 0.0
2017-Nov-18 16:30N 49°27' W 002°32'15 8.4
2017-Nov-18 14:44N 49°32' W 002°10'815.8
2017-Nov-18 14:15N 49°39' W 002°06'821.0
2017-Nov-18 13:52N 49°46' W 002°01'719.1
2017-Nov-18 13:30N 49°53' W 001°57'1019.1
2017-Nov-18 13:00N 50°00' W 001°49'918.7
2017-Nov-18 12:30N 50°08' W 001°39'1117.9
2017-Nov-18 11:54N 50°16' W 001°28'1317.3
2017-Nov-18 11:09N 50°27' W 001°18'217.2
2017-Nov-18 11:00N 50°29' W 001°16'917.2
2017-Nov-18 10:31N 50°36' W 001°08'815.6
2017-Nov-18 10:00N 50°43' W 001°03'611.8
2017-Nov-18 09:31N 50°49' W 001°07'1 1.4
2017-Nov-18 09:00N 50°49' W 001°06'0 0.0
2017-Nov-18 08:30N 50°49' W 001°06'0 0.0
2017-Nov-18 08:00N 50°49' W 001°06'0 0.0
2017-Nov-18 07:31N 50°49' W 001°06'0 0.0
2017-Nov-18 07:00N 50°49' W 001°06'0 0.0
2017-Nov-18 06:30N 50°49' W 001°06'1 2.6
2017-Nov-18 06:00N 50°48' W 001°07'713.1
2017-Nov-18 05:30N 50°42' W 001°01'815.1
2017-Nov-18 05:00N 50°36' W 001°06'1315.4
2017-Nov-18 04:12N 50°25' W 001°17'415.6
2017-Nov-18 03:56N 50°22' W 001°21'716.1
2017-Nov-18 03:31N 50°16' W 001°27'815.9
2017-Nov-18 03:00N 50°09' W 001°34'714.8
2017-Nov-18 02:30N 50°03' W 001°41'714.2
2017-Nov-18 02:00N 49°58' W 001°48'714.3
2017-Nov-18 01:30N 49°52' W 001°54'714.0
2017-Nov-18 01:00N 49°46' W 001°60'3912.9
2017-Nov-17 22:01N 49°08' W 002°09'12 3.2
2017-Nov-17 18:21N 49°16' W 002°23'616.6
2017-Nov-17 18:01N 49°21' W 002°26'714.3
2017-Nov-17 17:30N 49°27' W 002°32'0 0.0
2017-Nov-17 17:00N 49°27' W 002°32'0 0.0
2017-Nov-17 16:30N 49°27' W 002°32'4 3.8
2017-Nov-17 15:21N 49°27' W 002°25'615.4
2017-Nov-17 14:59N 49°30' W 002°18'511.2
2017-Nov-17 14:30N 49°33' W 002°11'611.1
2017-Nov-17 13:59N 49°38' W 002°07'919.2
2017-Nov-17 13:31N 49°47' W 002°03'1019.5
2017-Nov-17 13:01N 49°56' W 001°56'1020.2
2017-Nov-17 12:30N 50°03' W 001°46'1019.8
2017-Nov-17 12:00N 50°11' W 001°36'1718.9
2017-Nov-17 11:07N 50°25' W 001°20'318.5
2017-Nov-17 10:57N 50°27' W 001°18'818.8
2017-Nov-17 10:30N 50°34' W 001°11'918.1
2017-Nov-17 10:01N 50°42' W 001°03'713.9
2017-Nov-17 09:30N 50°48' W 001°07'1 2.1
2017-Nov-17 09:00N 50°49' W 001°06'0 0.0
2017-Nov-17 08:30N 50°49' W 001°06'0 0.0
2017-Nov-17 08:00N 50°49' W 001°06'0 0.0
2017-Nov-17 07:30N 50°49' W 001°06'0 0.0
2017-Nov-17 07:00N 50°49' W 001°06'0 0.9
2017-Nov-17 06:30N 50°49' W 001°06'2 3.3
2017-Nov-17 06:01N 50°47' W 001°06'611.8
2017-Nov-17 05:31N 50°42' W 001°01'815.9
2017-Nov-17 05:01N 50°35' W 001°07'1816.1
2017-Nov-17 03:52N 50°21' W 001°26'616.2
2017-Nov-17 03:30N 50°17' W 001°32'714.9
2017-Nov-17 03:00N 50°11' W 001°38'714.5
2017-Nov-17 02:30N 50°04' W 001°41'714.4
2017-Nov-17 02:00N 49°58' W 001°47'714.3
2017-Nov-17 01:30N 49°52' W 001°52'713.2
2017-Nov-17 01:01N 49°46' W 001°59'611.1
2017-Nov-17 00:30N 49°42' W 002°03'612.9
2017-Nov-17 00:01N 49°36' W 002°08'714.2
2017-Nov-16 23:30N 49°31' W 002°16'815.1
2017-Nov-16 23:00N 49°27' W 002°25'4 8.6
2017-Nov-16 22:30N 49°27' W 002°32'0 0.0
2017-Nov-16 22:00N 49°27' W 002°32'0 0.0
2017-Nov-16 21:30N 49°27' W 002°32'0 0.0
2017-Nov-16 21:00N 49°27' W 002°32'4 9.0
2017-Nov-16 20:31N 49°23' W 002°28'1813.4
2017-Nov-16 19:09N 49°10' W 002°10'2 0.6
2017-Nov-16 16:42N 49°10' W 002°08'416.4
2017-Nov-16 16:28N 49°10' W 002°14'714.8
2017-Nov-16 16:00N 49°15' W 002°21'611.4
2017-Nov-16 15:30N 49°20' W 002°18'510.6
2017-Nov-16 15:00N 49°25' W 002°15'611.3
2017-Nov-16 14:30N 49°30' W 002°11'1517.5
2017-Nov-16 13:39N 49°44' W 002°03'319.1
2017-Nov-16 13:31N 49°47' W 002°02'918.8
2017-Nov-16 13:00N 49°55' W 001°54'1019.3
2017-Nov-16 12:30N 50°02' W 001°45'919.0
2017-Nov-16 12:01N 50°10' W 001°36'2018.3
2017-Nov-16 10:55N 50°26' W 001°18'818.3
2017-Nov-16 10:30N 50°33' W 001°11'918.5
2017-Nov-16 10:00N 50°40' W 001°04'714.7
2017-Nov-16 09:30N 50°47' W 001°07'1 2.9
2017-Nov-16 09:00N 50°49' W 001°06'0 0.0
2017-Nov-16 08:30N 50°49' W 001°06'0 0.0
2017-Nov-16 08:00N 50°49' W 001°06'0 0.0
2017-Nov-16 07:31N 50°49' W 001°06'0 0.0
2017-Nov-16 07:01N 50°49' W 001°06'0 0.0
2017-Nov-16 06:31N 50°49' W 001°06'1 2.5
2017-Nov-16 06:01N 50°48' W 001°07'713.2
2017-Nov-16 05:31N 50°42' W 001°03'816.5
2017-Nov-16 05:00N 50°35' W 001°10'1913.8
2017-Nov-16 03:38N 50°20' W 001°29'213.0
2017-Nov-16 03:28N 50°19' W 001°31'816.4
2017-Nov-16 03:01N 50°12' W 001°37'816.6
2017-Nov-16 02:30N 50°05' W 001°42'714.9
2017-Nov-16 02:00N 49°58' W 001°49'713.6
2017-Nov-16 01:30N 49°52' W 001°53'714.7
2017-Nov-16 01:00N 49°46' W 001°59'713.3
2017-Nov-16 00:30N 49°41' W 002°05'714.3
2017-Nov-16 00:01N 49°34' W 002°10'815.6
2017-Nov-15 23:30N 49°29' W 002°20'714.3
2017-Nov-15 23:01N 49°25' W 002°29'3 5.7
2017-Nov-15 22:30N 49°27' W 002°32'0 0.0
2017-Nov-15 22:00N 49°27' W 002°32'0 0.0
2017-Nov-15 21:30N 49°27' W 002°32'0 0.0
2017-Nov-15 21:00N 49°27' W 002°32'4 8.9
2017-Nov-15 20:30N 49°24' W 002°28'17 4.1
2017-Nov-15 16:28N 49°10' W 002°14'715.0
2017-Nov-15 16:01N 49°15' W 002°21'815.7
2017-Nov-15 15:30N 49°22' W 002°17'713.1
2017-Nov-15 14:58N 49°29' W 002°12'611.9
2017-Nov-15 14:30N 49°34' W 002°09'612.5
2017-Nov-15 14:00N 49°39' W 002°05'918.2
2017-Nov-15 13:30N 49°48' W 002°00'918.6
2017-Nov-15 13:00N 49°56' W 001°54'1019.1
2017-Nov-15 12:31N 50°03' W 001°44'918.8
2017-Nov-15 12:01N 50°11' W 001°35'2318.7
2017-Nov-15 10:47N 50°30' W 001°15'519.3
2017-Nov-15 10:31N 50°34' W 001°10'918.1
2017-Nov-15 10:01N 50°42' W 001°03'612.8
2017-Nov-15 09:30N 50°48' W 001°07'1 2.1
2017-Nov-15 09:00N 50°49' W 001°06'0 0.0
2017-Nov-15 08:30N 50°49' W 001°06'0 0.0
2017-Nov-15 08:01N 50°49' W 001°06'0 0.0
2017-Nov-15 07:31N 50°49' W 001°06'0 0.0
2017-Nov-15 07:00N 50°49' W 001°06'2 4.5
2017-Nov-15 06:31N 50°47' W 001°06'714.6
2017-Nov-15 06:00N 50°39' W 001°05'2013.5
2017-Nov-15 04:31N 50°22' W 001°22'012.7
2017-Nov-15 04:30N 50°22' W 001°22'713.6
2017-Nov-15 04:01N 50°17' W 001°28'815.1
2017-Nov-15 03:30N 50°10' W 001°35'917.7
2017-Nov-15 03:00N 50°03' W 001°43'917.5
2017-Nov-15 02:30N 49°56' W 001°50'917.3
2017-Nov-15 02:00N 49°48' W 001°57'816.8
2017-Nov-15 01:30N 49°41' W 002°02'816.2
2017-Nov-15 01:00N 49°34' W 002°10'816.8
2017-Nov-15 00:31N 49°29' W 002°20'713.6
2017-Nov-15 00:00N 49°26' W 002°30'2 3.3
2017-Nov-14 23:30N 49°27' W 002°32'0 0.0
2017-Nov-14 23:01N 49°27' W 002°32'0 0.1
2017-Nov-14 22:23N 49°27' W 002°32'4 9.3
2017-Nov-14 22:01N 49°24' W 002°28'916.8
2017-Nov-14 21:30N 49°17' W 002°23'1015.4
2017-Nov-14 20:52N 49°10' W 002°12'3 1.4
2017-Nov-14 18:54N 49°10' W 002°08'912.2
2017-Nov-14 18:10N 49°16' W 002°19'316.0
2017-Nov-14 17:59N 49°19' W 002°19'715.2
2017-Nov-14 17:30N 49°25' W 002°15'815.1
2017-Nov-14 17:00N 49°32' W 002°10'814.4
2017-Nov-14 16:28N 49°39' W 002°06'612.2
2017-Nov-14 16:00N 49°45' W 002°02'613.0
2017-Nov-14 15:30N 49°50' W 001°56'714.9
2017-Nov-14 15:01N 49°56' W 001°49'815.8
2017-Nov-14 14:30N 50°02' W 001°41'816.7
2017-Nov-14 14:00N 50°10' W 001°36'917.0
2017-Nov-14 13:30N 50°17' W 001°29'1617.5
2017-Nov-14 12:35N 50°30' W 001°15'118.0
2017-Nov-14 12:30N 50°31' W 001°14'918.2
2017-Nov-14 12:00N 50°39' W 001°05'815.6
2017-Nov-14 11:31N 50°46' W 001°06'2 4.5
2017-Nov-14 11:01N 50°49' W 001°06'0 0.0
2017-Nov-14 10:31N 50°49' W 001°06'0 0.0
2017-Nov-14 10:01N 50°49' W 001°06'0 0.0
2017-Nov-14 09:31N 50°49' W 001°06'  

Dump ship's entire track history